Time;durP1;ratioP1;P1;durP2;ratioP2;P2;SDS_P1;SDS_P2;PMS_P1;PMS_P2;Temp;Humidity;BMP_temperature;BMP_pressure;BME280_temperature;BME280_humidity;BME280_pressure;Samples;Min_cycle;Max_cycle;Signal;HPM_P1;HPM_P2
2022/11/02 00:01:17;;;;;;;11.73;3.30;;;;;;;15.35;53.34;99560.78;6159878;23;20162;-91
2022/11/02 00:03:43;;;;;;;14.80;5.30;;;;;;;15.27;53.52;99554.28;6185008;23;20187;-92
2022/11/02 00:06:08;;;;;;;11.43;3.63;;;;;;;15.17;54.09;99558.47;6159932;23;20156;-92
2022/11/02 00:08:34;;;;;;;16.97;4.30;;;;;;;15.17;54.29;99547.91;6160085;23;20476;-92
2022/11/02 00:10:59;;;;;;;7.77;3.10;;;;;;;15.29;54.13;99549.75;6160230;23;20166;-91
2022/11/02 00:13:24;;;;;;;10.97;4.17;;;;;;;15.27;54.26;99554.28;6160653;23;20166;-91
2022/11/02 00:15:50;;;;;;;8.30;4.20;;;;;;;15.24;54.65;99552.69;6159862;23;20282;-91
2022/11/02 00:18:16;;;;;;;12.27;4.10;;;;;;;15.31;54.74;99553.13;6160417;23;20211;-92
2022/11/02 00:20:42;;;;;;;17.83;4.40;;;;;;;15.21;55.17;99552.91;6186191;23;20230;-92
2022/11/02 00:23:11;;;;;;;9.73;3.60;;;;;;;15.17;55.21;99542.63;6161164;23;20161;-91
2022/11/02 00:25:47;;;;;;;7.87;3.87;;;;;;;15.17;55.14;99543.47;6185795;23;20164;-91
2022/11/02 00:28:13;;;;;;;15.97;3.97;;;;;;;15.21;54.85;99539.69;6160135;23;20163;-91
2022/11/02 00:30:39;;;;;;;12.70;3.40;;;;;;;15.11;55.13;99533.31;6185701;23;20248;-91
2022/11/02 00:33:05;;;;;;;8.33;3.33;;;;;;;15.06;55.06;99539.84;6160190;23;20522;-91
2022/11/02 00:35:31;;;;;;;14.17;4.23;;;;;;;15.04;55.25;99537.28;6159826;23;20244;-92
2022/11/02 00:37:57;;;;;;;16.83;3.47;;;;;;;15.04;54.96;99537.28;6185725;23;20206;-92
2022/11/02 00:40:22;;;;;;;9.90;4.03;;;;;;;14.97;55.11;99530.69;6185558;23;20151;-92
2022/11/02 00:42:48;;;;;;;11.53;4.33;;;;;;;14.98;54.77;99531.56;6185820;23;20207;-91
2022/11/02 00:45:13;;;;;;;15.50;4.80;;;;;;;14.85;54.98;99525.38;6159994;23;20217;-91
2022/11/02 00:47:39;;;;;;;14.53;4.53;;;;;;;14.86;54.39;99527.91;6159737;23;20158;-92
2022/11/02 00:50:05;;;;;;;14.50;3.63;;;;;;;14.82;54.77;99536.13;6159915;23;20154;-92
2022/11/02 00:52:30;;;;;;;9.50;3.27;;;;;;;14.73;55.47;99532.25;6159587;23;20154;-92
2022/11/02 00:54:56;;;;;;;8.20;3.17;;;;;;;14.72;55.04;99531.44;6160245;23;20186;-92
2022/11/02 00:57:21;;;;;;;7.17;3.80;;;;;;;14.68;55.40;99529.06;6185803;23;20217;-91
2022/11/02 00:59:47;;;;;;;10.17;3.80;;;;;;;14.71;55.05;99523.59;6185716;23;20162;-92
2022/11/02 01:02:13;;;;;;;7.37;2.97;;;;;;;14.66;54.81;99528.31;6159874;23;20251;-91
2022/11/02 01:04:38;;;;;;;10.67;3.03;;;;;;;14.63;54.83;99523.22;6159472;23;20237;-92
2022/11/02 01:07:04;;;;;;;8.57;3.00;;;;;;;14.70;54.85;99522.75;6160965;23;20319;-93
2022/11/02 01:09:29;;;;;;;9.10;3.43;;;;;;;14.71;54.76;99519.16;6159548;23;20551;-92
2022/11/02 01:11:55;;;;;;;11.23;2.67;;;;;;;14.66;54.86;99515.97;6159748;23;20165;-92
2022/11/02 01:14:21;;;;;;;10.40;2.40;;;;;;;14.76;54.73;99521.50;6159585;23;20629;-91
2022/11/02 01:16:46;;;;;;;6.13;2.90;;;;;;;14.81;54.79;99516.78;6159639;23;20150;-92
2022/11/02 01:19:13;;;;;;;7.30;3.20;;;;;;;14.72;56.22;99518.25;6159540;23;20154;-91
2022/11/02 01:21:39;;;;;;;12.27;3.47;;;;;;;14.70;56.47;99521.91;6159361;23;20592;-91
2022/11/02 01:24:04;;;;;;;7.90;3.27;;;;;;;14.64;57.03;99522.28;6159389;23;20146;-91
2022/11/02 01:26:30;;;;;;;9.17;2.73;;;;;;;14.78;56.55;99514.34;6159482;23;20656;-92
2022/11/02 01:28:55;;;;;;;5.63;2.63;;;;;;;14.83;56.69;99512.28;6185599;23;20151;-92
2022/11/02 01:31:21;;;;;;;8.20;3.13;;;;;;;14.76;56.54;99510.97;6162089;23;20168;-91
2022/11/02 01:33:47;;;;;;;10.37;3.57;;;;;;;14.85;56.24;99507.75;6161891;23;20459;-91
2022/11/02 01:36:14;;;;;;;8.87;3.87;;;;;;;14.64;56.76;99503.81;6187681;23;20146;-91
2022/11/02 01:38:40;;;;;;;7.67;2.90;;;;;;;14.55;57.02;99509.66;6161501;23;20154;-91
2022/11/02 01:41:06;;;;;;;11.07;3.17;;;;;;;14.67;57.23;99516.84;6186867;23;20168;-91
2022/11/02 01:43:34;;;;;;;5.30;2.20;;;;;;;14.56;57.87;99509.59;6161302;23;20181;-92
2022/11/02 01:46:11;;;;;;;10.87;2.87;;;;;;;14.57;58.02;99506.00;6187330;23;20214;-91
2022/11/02 01:48:46;;;;;;;7.87;3.03;;;;;;;14.54;58.01;99505.34;6161408;23;20576;-91
2022/11/02 01:51:22;;;;;;;8.13;2.93;;;;;;;14.45;57.50;99505.91;6187373;23;20237;-91
2022/11/02 01:53:50;;;;;;;9.97;3.43;;;;;;;14.45;56.77;99519.09;6187365;23;20139;-91
2022/11/02 01:56:19;;;;;;;7.40;3.17;;;;;;;14.56;56.38;99506.09;6161688;23;20154;-91
2022/11/02 01:58:50;;;;;;;13.07;3.93;;;;;;;14.58;56.04;99501.56;6161161;23;20193;-91
2022/11/02 02:01:16;;;;;;;13.03;3.70;;;;;;;14.60;55.96;99502.31;6161146;23;20485;-91
2022/11/02 02:03:42;;;;;;;9.27;3.30;;;;;;;14.54;55.74;99511.47;6186846;23;20146;-90
2022/11/02 02:06:12;;;;;;;10.40;3.33;;;;;;;14.50;56.19;99503.84;6161073;23;20252;-90
2022/11/02 02:08:41;;;;;;;8.27;3.20;;;;;;;14.52;56.26;99507.22;6186975;23;20589;-90
2022/11/02 02:11:30;;;;;;;7.27;3.33;;;;;;;14.47;56.19;99510.16;6160862;23;20479;-90
2022/11/02 02:14:05;;;;;;;18.00;3.80;;;;;;;14.37;56.28;99516.09;6186826;23;20207;-90
2022/11/02 02:17:08;;;;;;;12.77;3.67;;;;;;;14.11;56.28;99505.34;6187259;23;20163;-90
2022/11/02 02:20:01;;;;;;;20.57;5.97;;;;;;;13.96;56.24;99505.44;6187160;23;20200;-90
2022/11/02 02:22:54;;;;;;;16.83;6.47;;;;;;;13.99;55.58;99513.97;6186816;23;20153;-90
2022/11/02 02:25:42;;;;;;;28.20;7.67;;;;;;;14.00;55.11;99510.41;6186877;23;20165;-90
2022/11/02 02:28:24;;;;;;;24.40;7.80;;;;;;;14.02;54.77;99508.53;6160681;23;20189;-91
2022/11/02 02:31:05;;;;;;;26.87;7.37;;;;;;;13.90;55.06;99513.69;6160709;23;20157;-90
2022/11/02 02:33:38;;;;;;;19.53;7.37;;;;;;;13.74;55.53;99512.91;6186996;23;20141;-91
2022/11/02 02:36:27;;;;;;;24.93;7.27;;;;;;;13.77;54.92;99505.69;6187081;23;20170;-91
2022/11/02 02:39:05;;;;;;;23.90;7.37;;;;;;;13.76;55.64;99511.03;6160688;23;20174;-90
2022/11/02 02:41:40;;;;;;;23.67;7.00;;;;;;;13.70;55.50;99517.53;6160300;23;20151;-90
2022/11/02 02:44:20;;;;;;;22.00;6.77;;;;;;;13.60;55.92;99508.44;6160626;23;20161;-90
2022/11/02 02:46:56;;;;;;;24.07;6.10;;;;;;;13.57;55.63;99508.66;6160612;23;20153;-90
2022/11/02 02:49:37;;;;;;;10.73;3.87;;;;;;;13.62;55.96;99514.50;6187268;23;20152;-90
2022/11/02 02:52:03;;;;;;;15.17;4.20;;;;;;;13.63;55.82;99503.00;6160723;23;20147;-91
2022/11/02 02:54:35;;;;;;;10.60;3.97;;;;;;;13.64;55.71;99502.06;6160875;23;20220;-91
2022/11/02 02:57:06;;;;;;;6.20;2.83;;;;;;;13.67;55.62;99512.44;6187171;23;20138;-91
2022/11/02 02:59:40;;;;;;;7.53;2.13;;;;;;;13.61;55.93;99504.88;6187224;23;20204;-91
2022/11/02 03:02:13;;;;;;;9.33;2.40;;;;;;;13.53;56.56;99500.06;6186958;23;20138;-90
2022/11/02 03:04:38;;;;;;;9.27;3.60;;;;;;;13.52;56.21;99501.00;6160561;23;20166;-91
2022/11/02 03:07:04;;;;;;;16.03;3.13;;;;;;;13.52;56.59;99494.91;6160557;23;20517;-91
2022/11/02 03:10:04;;;;;;;19.70;3.60;;;;;;;13.53;56.52;99504.50;6186496;23;20151;-91
2022/11/02 03:12:39;;;;;;;9.80;4.50;;;;;;;13.47;57.32;99510.09;6101041;23;20246;-91
2022/11/02 03:15:13;;;;;;;16.07;6.07;;;;;;;13.49;57.38;99497.72;6177685;23;20644;-91
2022/11/02 03:18:01;;;;;;;17.63;5.07;;;;;;;13.37;57.71;99498.41;6160455;23;20141;-91
2022/11/02 03:21:02;;;;;;;13.20;3.57;;;;;;;13.31;58.16;99498.78;6160313;23;20143;-91
2022/11/02 03:23:34;;;;;;;11.33;3.87;;;;;;;13.26;58.53;99501.66;6146922;23;20154;-91
2022/11/02 03:26:21;;;;;;;11.33;3.63;;;;;;;13.29;58.34;99498.00;6186055;23;20190;-91
2022/11/02 03:29:05;;;;;;;15.63;4.03;;;;;;;13.35;57.84;99495.88;6161545;23;20145;-91
2022/11/02 03:31:46;;;;;;;13.97;3.77;;;;;;;13.42;57.96;99496.34;6160322;23;20471;-91
2022/11/02 03:34:19;;;;;;;15.67;4.73;;;;;;;13.57;57.33;99499.91;6186944;23;20200;-91
2022/11/02 03:36:50;;;;;;;14.20;4.43;;;;;;;13.52;57.61;99498.38;6186249;23;20218;-91
2022/11/02 03:39:23;;;;;;;14.70;5.10;;;;;;;13.39;58.64;99496.56;6160336;23;20148;-91
2022/11/02 03:41:52;;;;;;;8.63;3.47;;;;;;;13.35;58.52;99500.28;6186477;23;20555;-92
2022/11/02 03:44:22;;;;;;;8.43;3.00;;;;;;;13.34;59.14;99498.59;6160425;23;20152;-90
2022/11/02 03:46:53;;;;;;;8.70;3.27;;;;;;;13.28;59.08;99494.56;6185117;23;20146;-91
2022/11/02 03:49:20;;;;;;;12.97;3.40;;;;;;;13.31;58.64;99490.91;6160186;23;20220;-91
2022/11/02 03:51:47;;;;;;;7.83;3.23;;;;;;;13.23;59.07;99495.75;6160183;23;20470;-90
2022/11/02 03:54:53;;;;;;;5.47;2.20;;;;;;;13.29;59.39;99498.00;6159627;23;20187;-90
2022/11/02 03:57:24;;;;;;;8.97;2.87;;;;;;;13.21;59.48;99498.44;6160067;23;20298;-91
2022/11/02 03:59:49;;;;;;;8.20;2.87;;;;;;;13.33;59.09;99494.28;6186297;23;20146;-90
2022/11/02 04:02:18;;;;;;;5.63;2.50;;;;;;;13.25;60.12;99489.47;6186042;23;20152;-90
2022/11/02 04:04:51;;;;;;;4.93;2.87;;;;;;;13.31;60.16;99481.19;6185651;23;20604;-90
2022/11/02 04:07:26;;;;;;;9.50;1.90;;;;;;;13.43;59.91;99488.38;6186469;23;20159;-91
2022/11/02 04:09:51;;;;;;;9.03;2.80;;;;;;;13.39;59.84;99488.66;6185905;23;20213;-91
2022/11/02 04:15:01;;;;;;;4.47;1.93;;;;;;;13.39;59.80;99478.13;6185962;23;20654;-90
2022/11/02 04:20:11;;;;;;;4.60;1.87;;;;;;;13.36;60.45;99481.75;6186106;23;20234;-90
2022/11/02 04:25:20;;;;;;;13.70;2.67;;;;;;;13.42;59.80;99477.94;6186074;23;20180;-90
2022/11/02 04:27:51;;;;;;;4.87;2.33;;;;;;;13.46;59.90;99482.09;6160978;23;20160;-91
2022/11/02 04:30:19;;;;;;;7.23;2.53;;;;;;;13.49;59.80;99482.75;6159468;23;20563;-90
2022/11/02 04:35:32;;;;;;;7.77;2.83;;;;;;;13.40;60.20;99475.41;6185897;23;20318;-90
2022/11/02 04:40:43;;;;;;;8.43;2.27;;;;;;;13.31;60.35;99472.47;6186121;23;20151;-90
2022/11/02 04:43:09;;;;;;;13.63;2.63;;;;;;;13.24;61.25;99465.84;6185477;23;20172;-91
2022/11/02 04:45:35;;;;;;;6.20;2.40;;;;;;;13.29;61.14;99472.53;6159478;23;20148;-91
2022/11/02 04:48:03;;;;;;;5.43;2.50;;;;;;;13.38;60.91;99469.38;6185905;23;20156;-90
2022/11/02 04:50:29;;;;;;;10.57;2.23;;;;;;;13.41;60.50;99468.34;6185365;23;20148;-91
2022/11/02 04:52:59;;;;;;;11.47;2.77;;;;;;;13.42;60.84;99470.88;6159788;23;20157;-91
2022/11/02 04:55:25;;;;;;;6.63;2.23;;;;;;;13.45;60.87;99469.84;6159990;23;20233;-90
2022/11/02 04:57:51;;;;;;;6.80;2.10;;;;;;;13.39;60.87;99475.50;6159792;23;20568;-90
2022/11/02 05:00:17;;;;;;;5.33;2.03;;;;;;;13.37;61.15;99479.97;6186001;23;20150;-90
2022/11/02 05:02:48;;;;;;;4.30;1.87;;;;;;;13.37;61.10;99477.34;6185260;23;20176;-91
2022/11/02 05:05:15;;;;;;;5.93;2.13;;;;;;;13.38;61.13;99479.91;6160086;23;20140;-90
2022/11/02 05:07:41;;;;;;;4.20;1.77;;;;;;;13.54;60.90;99474.59;6159751;23;20156;-90
2022/11/02 05:10:07;;;;;;;6.97;2.53;;;;;;;13.55;60.90;99474.47;6159583;23;20553;-90
2022/11/02 05:12:33;;;;;;;3.40;1.50;;;;;;;13.49;60.97;99477.47;6185604;23;20149;-90
2022/11/02 05:14:58;;;;;;;4.37;1.80;;;;;;;13.49;61.06;99481.91;6159193;23;20178;-90
2022/11/02 05:17:24;;;;;;;11.30;2.20;;;;;;;13.53;61.05;99484.28;6159197;23;20160;-90
2022/11/02 05:19:49;;;;;;;9.30;2.20;;;;;;;13.61;60.92;99491.72;6159772;23;20573;-90
2022/11/02 05:22:15;;;;;;;5.13;1.57;;;;;;;13.61;61.12;99490.84;6185411;23;20177;-90
2022/11/02 05:24:40;;;;;;;3.93;2.03;;;;;;;13.59;60.98;99495.38;6184173;23;20160;-90
2022/11/02 05:27:05;;;;;;;6.37;2.20;;;;;;;13.63;61.28;99492.47;6159153;23;20158;-90
2022/11/02 05:33:04;;;;;;;3.60;1.90;;;;;;;13.74;60.70;99505.84;6043461;23;20596;-90
2022/11/02 05:35:30;;;;;;;6.07;2.30;;;;;;;13.86;60.75;99512.19;6094758;23;20270;-91
2022/11/02 05:37:55;;;;;;;3.77;1.60;;;;;;;13.99;60.51;99508.69;6144289;23;20445;-90
2022/11/02 05:40:21;;;;;;;9.03;2.50;;;;;;;14.01;60.70;99509.47;6185179;23;20151;-90
2022/11/02 05:42:46;;;;;;;9.80;2.20;;;;;;;14.14;60.27;99507.78;6185232;23;20588;-91
2022/11/02 05:45:12;;;;;;;3.23;1.90;;;;;;;14.28;60.16;99506.09;6159235;23;20161;-90
2022/11/02 05:47:37;;;;;;;3.83;1.97;;;;;;;14.39;60.25;99516.84;6159086;23;20540;-90
2022/11/02 05:50:03;;;;;;;7.33;2.40;;;;;;;14.53;59.83;99509.78;6185202;23;20153;-90
2022/11/02 05:52:28;;;;;;;14.30;2.07;;;;;;;14.74;59.23;99516.34;6185165;23;20147;-90
2022/11/02 05:54:54;;;;;;;8.97;2.20;;;;;;;14.98;58.27;99516.56;6185359;23;20175;-90
2022/11/02 05:57:19;;;;;;;7.80;2.37;;;;;;;15.16;57.23;99512.72;6185486;23;20473;-90
2022/11/02 05:59:45;;;;;;;3.50;1.80;;;;;;;15.39;56.66;99511.22;6185797;23;20151;-90
2022/11/02 06:02:10;;;;;;;5.40;2.50;;;;;;;15.59;56.27;99512.56;6185033;23;20150;-90
2022/11/02 06:04:36;;;;;;;3.90;1.50;;;;;;;15.71;55.35;99509.94;6159157;23;20157;-90
2022/11/02 06:07:01;;;;;;;15.43;2.60;;;;;;;15.80;54.82;99500.56;6185095;23;20154;-90
2022/11/02 06:09:27;;;;;;;5.03;2.60;;;;;;;15.87;53.83;99499.19;6159177;23;20162;-90
2022/11/02 06:11:52;;;;;;;3.53;1.90;;;;;;;15.98;53.66;99499.31;6159104;23;20166;-90
2022/11/02 06:14:18;;;;;;;7.23;2.43;;;;;;;16.14;53.50;99504.38;6185497;23;20174;-90
2022/11/02 06:16:43;;;;;;;9.10;2.97;;;;;;;16.37;53.51;99507.09;6185753;23;20159;-90
2022/11/02 06:19:09;;;;;;;14.67;2.80;;;;;;;16.49;53.01;99508.03;6160903;23;20163;-90
2022/11/02 06:21:34;;;;;;;7.40;3.03;;;;;;;16.54;52.36;99504.13;6187097;23;20183;-91
2022/11/02 06:23:59;;;;;;;6.93;2.30;;;;;;;16.64;52.33;99499.03;6160928;23;20181;-90
2022/11/02 06:26:25;;;;;;;10.70;2.83;;;;;;;16.86;51.81;99507.13;6160697;23;20184;-90
2022/11/02 06:28:50;;;;;;;6.90;2.70;;;;;;;17.20;51.00;99502.84;6161196;23;20194;-91
2022/11/02 06:31:16;;;;;;;6.33;2.10;;;;;;;17.40;49.57;99499.56;6160977;23;20162;-91
2022/11/02 06:33:43;;;;;;;3.20;1.50;;;;;;;17.41;49.15;99497.75;6160735;23;20492;-91
2022/11/02 06:36:09;;;;;;;15.67;2.47;;;;;;;17.50;49.20;99495.28;6160459;23;20196;-91
2022/11/02 06:38:34;;;;;;;7.73;2.13;;;;;;;17.45;48.93;99501.91;6186998;23;20151;-91
2022/11/02 06:41:02;;;;;;;7.43;2.03;;;;;;;17.74;48.78;99497.94;6186738;23;20153;-90
2022/11/02 06:43:28;;;;;;;6.17;1.73;;;;;;;18.21;47.69;99496.91;6160691;23;20492;-90
2022/11/02 06:45:55;;;;;;;5.33;2.03;;;;;;;18.80;46.48;99501.00;6186884;23;20556;-90
2022/11/02 06:48:22;;;;;;;22.23;3.47;;;;;;;18.97;45.47;99497.81;6186713;23;20150;-89
2022/11/02 06:50:47;;;;;;;8.80;2.83;;;;;;;19.08;45.31;99498.78;6160570;23;20154;-91
2022/11/02 06:53:13;;;;;;;8.67;2.30;;;;;;;19.24;45.84;99496.53;6160711;23;20166;-91
2022/11/02 06:55:38;;;;;;;9.17;2.13;;;;;;;19.34;45.23;99490.34;6161907;23;20260;-92
2022/11/02 06:58:04;;;;;;;9.00;2.00;;;;;;;19.51;44.92;99494.28;6160747;23;20165;-92
2022/11/02 07:00:30;;;;;;;5.77;2.00;;;;;;;19.69;44.48;99498.06;6186833;23;20155;-91
2022/11/02 07:03:01;;;;;;;4.77;1.80;;;;;;;19.90;44.43;99484.75;6161928;23;20185;-92
2022/11/02 07:05:26;;;;;;;4.73;2.03;;;;;;;20.03;43.79;99491.56;6161078;23;20521;-92
2022/11/02 07:07:53;;;;;;;5.20;1.80;;;;;;;20.14;43.66;99480.00;6160621;23;20238;-92
2022/11/02 07:10:18;;;;;;;7.67;2.83;;;;;;;20.18;43.67;99482.25;6186903;23;20153;-92
2022/11/02 07:12:44;;;;;;;3.73;1.47;;;;;;;20.14;43.80;99475.53;6160582;23;20151;-93
2022/11/02 07:15:10;;;;;;;5.00;2.27;;;;;;;20.20;43.86;99477.63;6160844;23;20535;-92
2022/11/02 07:17:39;;;;;;;6.27;2.30;;;;;;;20.42;43.49;99473.13;6160600;23;20163;-92
2022/11/02 07:23:54;;;;;;;8.57;1.57;;;;;;;20.81;43.01;99470.47;6186931;23;20464;-92
2022/11/02 07:26:20;;;;;;;8.70;1.90;;;;;;;20.95;42.46;99465.72;6186651;23;20169;-92
2022/11/02 07:28:46;;;;;;;5.50;1.70;;;;;;;21.08;41.91;99467.19;6160442;23;20482;-92
2022/11/02 07:31:11;;;;;;;15.63;2.93;;;;;;;21.16;42.16;99464.66;6160639;23;20157;-93
2022/11/02 07:33:36;;;;;;;10.60;2.20;;;;;;;21.20;41.68;99460.72;6186281;23;20170;-94
2022/11/02 07:36:04;;;;;;;7.77;2.67;;;;;;;21.25;41.61;99455.00;6160458;23;20189;-91
2022/11/02 07:38:29;;;;;;;6.20;2.30;;;;;;;21.31;41.95;99457.06;6160726;23;20298;-92
2022/11/02 07:40:55;;;;;;;9.13;2.33;;;;;;;21.36;41.64;99455.69;6160356;23;20615;-92
2022/11/02 07:43:21;;;;;;;5.43;2.30;;;;;;;21.31;41.59;99462.41;6186369;23;20146;-92
2022/11/02 07:45:46;;;;;;;5.83;2.30;;;;;;;21.17;41.31;99453.00;6187185;23;20142;-92
2022/11/02 07:48:12;;;;;;;9.70;2.80;;;;;;;21.34;41.43;99446.97;6160475;23;20169;-92
2022/11/02 07:50:37;;;;;;;9.40;2.30;;;;;;;21.47;40.93;99451.19;6160430;23;20597;-92
2022/11/02 07:53:03;;;;;;;11.10;3.07;;;;;;;21.60;40.85;99447.22;6187163;23;20151;-92
2022/11/02 07:55:30;;;;;;;6.00;1.90;;;;;;;21.81;40.38;99444.38;6186126;23;20174;-93
2022/11/02 07:57:57;;;;;;;7.47;2.63;;;;;;;21.92;40.45;99438.91;6185103;23;20186;-92
2022/11/02 08:00:25;;;;;;;4.63;2.10;;;;;;;21.90;39.28;99435.56;6186209;23;20217;-93
2022/11/02 08:02:57;;;;;;;6.83;2.43;;;;;;;22.13;40.00;99434.22;6160288;23;20563;-92
2022/11/02 08:05:24;;;;;;;9.07;2.17;;;;;;;22.13;39.48;99431.53;6160108;23;20142;-91
2022/11/02 08:08:00;;;;;;;7.03;2.30;;;;;;;22.36;39.18;99430.19;6186100;23;20150;-92
2022/11/02 08:10:27;;;;;;;13.40;3.13;;;;;;;22.61;38.31;99428.66;6186709;23;20142;-93
2022/11/02 08:12:53;;;;;;;6.70;2.80;;;;;;;22.82;39.09;99423.06;6160545;23;20566;-92
2022/11/02 08:15:18;;;;;;;9.43;2.60;;;;;;;22.98;37.72;99421.38;6185922;23;20174;-93
2022/11/02 08:17:44;;;;;;;9.43;2.17;;;;;;;23.07;37.05;99414.28;6160349;23;20216;-93
2022/11/02 08:20:09;;;;;;;3.83;2.00;;;;;;;23.05;37.91;99419.81;6186183;23;20149;-93
2022/11/02 08:22:39;;;;;;;16.70;3.23;;;;;;;23.27;37.96;99417.66;6159841;23;20158;-93
2022/11/02 08:25:06;;;;;;;8.97;2.70;;;;;;;23.35;37.89;99413.19;6159701;23;20162;-91
2022/11/02 08:27:32;;;;;;;6.70;2.97;;;;;;;23.56;37.03;99405.69;6159908;23;20169;-93
2022/11/02 08:29:58;;;;;;;7.30;2.60;;;;;;;23.78;37.22;99407.88;6186794;23;20151;-92
2022/11/02 08:32:23;;;;;;;5.67;2.57;;;;;;;24.07;36.38;99412.06;6185831;23;20142;-92
2022/11/02 08:34:49;;;;;;;7.87;2.80;;;;;;;24.19;35.88;99400.09;6185979;23;20244;-92
2022/11/02 08:37:14;;;;;;;9.03;3.17;;;;;;;24.28;35.47;99407.16;6185861;23;20237;-92
2022/11/02 08:39:40;;;;;;;10.73;2.90;;;;;;;24.44;35.84;99405.41;6185694;23;20222;-92
2022/11/02 08:42:06;;;;;;;7.23;2.63;;;;;;;24.63;35.03;99398.09;6160514;23;20158;-92
2022/11/02 08:44:31;;;;;;;13.13;3.27;;;;;;;24.76;35.13;99402.00;6159906;23;20641;-93
2022/11/02 08:46:57;;;;;;;15.90;2.97;;;;;;;24.85;34.23;99409.06;6159913;23;20154;-92
2022/11/02 08:49:22;;;;;;;15.47;2.80;;;;;;;24.98;33.49;99396.00;6159884;23;20164;-94
2022/11/02 08:51:48;;;;;;;8.50;3.27;;;;;;;25.23;33.95;99390.69;6159986;23;20262;-93
2022/11/02 08:54:13;;;;;;;13.40;2.97;;;;;;;25.36;33.39;99377.59;6185888;23;20178;-93
2022/11/02 08:56:39;;;;;;;8.90;2.20;;;;;;;25.44;32.43;99385.66;6160007;23;20219;-93
2022/11/02 08:59:04;;;;;;;10.77;2.07;;;;;;;25.56;32.73;99381.63;6185682;23;20181;-93
2022/11/02 09:01:30;;;;;;;5.03;2.23;;;;;;;25.78;32.84;99378.25;6185679;23;20212;-93
2022/11/02 09:03:55;;;;;;;10.17;3.17;;;;;;;26.00;32.67;99377.50;6185798;23;20147;-91
2022/11/02 09:06:21;;;;;;;10.60;3.37;;;;;;;26.12;31.87;99376.16;6186121;23;20346;-93
2022/11/02 09:08:46;;;;;;;10.67;2.67;;;;;;;26.19;32.04;99373.59;6185649;23;20162;-91
2022/11/02 09:11:12;;;;;;;6.73;3.00;;;;;;;26.26;31.52;99363.00;6159564;23;20190;-91
2022/11/02 09:13:37;;;;;;;16.43;3.83;;;;;;;26.13;31.78;99367.06;6159638;23;20150;-90
2022/11/02 09:16:04;;;;;;;10.43;2.45;;;;;;;26.02;32.22;99369.28;6185937;23;20185;-92
2022/11/02 09:18:29;;;;;;;10.82;2.70;;;;;;;26.15;32.00;99356.16;6186248;23;20151;-93
2022/11/02 09:20:55;;;;;;;7.75;2.47;;;;;;;26.41;31.63;99363.94;6159565;23;20154;-93
2022/11/02 09:23:21;;;;;;;10.15;2.05;;;;;;;26.55;31.44;99357.78;6184335;23;20228;-92
2022/11/02 09:25:48;;;;;;;6.55;2.63;;;;;;;26.91;31.16;99355.44;6159442;23;20181;-93
2022/11/02 09:28:14;;;;;;;8.55;2.88;;;;;;;27.17;31.23;99345.16;6186068;23;20566;-93
2022/11/02 09:30:40;;;;;;;5.60;2.40;;;;;;;27.28;30.61;99337.44;6159906;23;20154;-91
2022/11/02 09:33:06;;;;;;;7.88;2.85;;;;;;;27.28;30.18;99331.25;6185697;23;20154;-93
2022/11/02 09:35:38;;;;;;;7.10;1.95;;;;;;;27.57;29.47;99327.81;6185659;23;20253;-93
2022/11/02 09:38:04;;;;;;;6.50;2.35;;;;;;;27.62;29.60;99328.09;6186535;23;20276;-93
2022/11/02 09:40:43;;;;;;;6.53;1.85;;;;;;;27.88;29.34;99323.91;6160085;23;20154;-92
2022/11/02 09:43:22;;;;;;;6.30;2.13;;;;;;;28.00;28.96;99321.56;6159684;23;20150;-93
2022/11/02 09:46:03;;;;;;;7.90;2.33;;;;;;;28.12;28.71;99312.00;6185819;23;20566;-93
2022/11/02 09:48:34;;;;;;;7.25;2.17;;;;;;;28.24;28.17;99313.22;6186606;23;20217;-92
2022/11/02 09:51:03;;;;;;;6.85;2.03;;;;;;;28.18;28.57;99313.97;6185839;23;20151;-91
2022/11/02 09:54:06;;;;;;;8.23;2.47;;;;;;;28.26;28.54;99307.63;6187537;23;20147;-93
2022/11/02 09:56:33;;;;;;;6.82;1.85;;;;;;;28.44;28.67;99297.25;6187495;23;20158;-92
2022/11/02 09:59:10;;;;;;;10.38;2.10;;;;;;;28.74;28.17;99296.19;6187357;23;20567;-93
2022/11/02 10:01:39;;;;;;;9.18;2.55;;;;;;;28.53;28.27;99288.88;6187591;23;20135;-92
2022/11/02 10:04:44;;;;;;;7.50;2.47;;;;;;;28.63;27.67;99292.13;6187683;23;20570;-93
2022/11/02 10:07:47;;;;;;;8.60;2.72;;;;;;;28.90;26.91;99293.22;6161506;23;20161;-93
2022/11/02 10:10:15;;;;;;;5.22;2.00;;;;;;;29.01;27.51;99276.47;6161308;23;20476;-92
2022/11/02 10:12:59;;;;;;;7.22;2.33;;;;;;;29.08;27.81;99271.16;6187410;23;20621;-93
2022/11/02 10:15:41;;;;;;;7.00;2.13;;;;;;;29.21;27.87;99271.28;6162138;23;20502;-93
2022/11/02 10:18:23;;;;;;;8.27;2.35;;;;;;;28.97;26.63;99271.69;6161213;23;20240;-93
2022/11/02 10:20:52;;;;;;;6.45;1.77;;;;;;;29.16;27.53;99271.84;6187176;23;20146;-91
2022/11/02 10:23:27;;;;;;;6.25;2.17;;;;;;;29.09;27.48;99270.09;6187448;23;20221;-93
2022/11/02 10:25:54;;;;;;;6.40;1.85;;;;;;;29.41;27.29;99258.75;6186755;23;20162;-92
2022/11/02 10:28:24;;;;;;;7.78;1.75;;;;;;;29.63;26.70;99254.94;6186805;23;20567;-91
2022/11/02 10:30:52;;;;;;;7.72;2.20;;;;;;;29.67;27.32;99258.91;6161284;23;20238;-92
2022/11/02 10:33:25;;;;;;;7.85;1.80;;;;;;;30.02;26.26;99250.78;6160998;23;20558;-92
2022/11/02 10:36:09;;;;;;;8.18;2.20;;;;;;;30.53;25.40;99249.31;6161085;23;20174;-92
2022/11/02 10:39:02;;;;;;;6.22;2.25;;;;;;;30.88;24.97;99237.28;6161066;23;20154;-93
2022/11/02 10:41:44;;;;;;;10.40;2.17;;;;;;;30.73;24.95;99231.25;6187256;23;20220;-92
2022/11/02 10:44:28;;;;;;;9.73;2.15;;;;;;;30.92;24.83;99229.63;6187046;23;20146;-92
2022/11/02 10:47:09;;;;;;;5.72;1.65;;;;;;;31.06;24.73;99227.72;6160781;23;20213;-92
2022/11/02 10:49:59;;;;;;;3.35;1.58;;;;;;;31.03;24.99;99220.84;6187476;23;20211;-93
2022/11/02 10:52:32;;;;;;;6.95;1.55;;;;;;;31.31;24.46;99212.50;6187505;23;20162;-92
2022/11/02 10:54:58;;;;;;;2.92;1.15;;;;;;;31.69;23.91;99213.44;6160750;23;20174;-92
2022/11/02 10:57:24;;;;;;;5.50;1.90;;;;;;;31.56;23.94;99208.06;6160969;23;20165;-92
2022/11/02 11:00:21;;;;;;;3.78;1.45;;;;;;;31.31;23.27;99209.78;6186505;23;20150;-91
2022/11/02 11:03:11;;;;;;;7.72;1.55;;;;;;;31.35;23.47;99203.72;6187259;23;20197;-91
2022/11/02 11:05:58;;;;;;;4.00;1.60;;;;;;;31.47;22.99;99198.53;6186546;23;20131;-92
2022/11/02 11:08:36;;;;;;;5.70;1.35;;;;;;;31.69;22.20;99190.91;6172416;23;20158;-92
2022/11/02 11:11:12;;;;;;;9.20;2.00;;;;;;;31.57;22.71;99194.31;6186983;23;20131;-92
2022/11/02 11:13:40;;;;;;;4.47;1.45;;;;;;;31.94;22.73;99190.00;6187282;23;20146;-92
2022/11/02 11:16:06;;;;;;;4.63;1.67;;;;;;;31.77;22.78;99188.81;6160295;23;20629;-91
2022/11/02 11:18:31;;;;;;;7.68;1.85;;;;;;;31.87;23.95;99189.19;6185201;23;20150;-92
2022/11/02 11:20:58;;;;;;;4.85;1.50;;;;;;;32.02;23.04;99181.63;6186843;23;20146;-93
2022/11/02 11:23:25;;;;;;;2.25;0.95;;;;;;;32.12;22.68;99178.44;6160248;23;20570;-92
2022/11/02 11:26:05;;;;;;;4.75;1.40;;;;;;;32.38;22.33;99177.44;6186329;23;20267;-92
2022/11/02 11:28:54;;;;;;;8.35;2.20;;;;;;;32.59;22.08;99168.97;6187004;23;20138;-92
2022/11/02 11:31:20;;;;;;;6.07;1.55;;;;;;;32.62;21.97;99172.09;6186949;23;20143;-92
2022/11/02 11:33:53;;;;;;;7.95;1.92;;;;;;;32.94;21.87;99170.13;6186343;23;20151;-92
2022/11/02 11:36:29;;;;;;;5.75;1.10;;;;;;;32.95;21.35;99170.94;6160350;23;20506;-92
2022/11/02 11:38:57;;;;;;;5.63;1.88;;;;;;;33.11;21.45;99154.94;6186919;23;20130;-91
2022/11/02 11:41:23;;;;;;;6.38;2.03;;;;;;;33.25;21.58;99153.75;6186445;23;20280;-92
2022/11/02 11:43:52;;;;;;;10.23;2.17;;;;;;;33.22;21.02;99161.53;6186233;23;20146;-91
2022/11/02 11:46:17;;;;;;;9.73;1.95;;;;;;;33.07;20.46;99159.16;6160358;23;20146;-92
2022/11/02 11:48:58;;;;;;;5.80;1.55;;;;;;;33.12;20.10;99150.34;6186186;23;20421;-93
2022/11/02 11:51:25;;;;;;;8.23;1.30;;;;;;;32.89;21.37;99145.50;6160731;23;20150;-92
2022/11/02 11:54:12;;;;;;;4.88;1.17;;;;;;;32.88;21.46;99146.59;6186728;23;20586;-92
2022/11/02 11:56:37;;;;;;;7.35;1.65;;;;;;;33.09;20.28;99139.94;6186200;23;20162;-91
2022/11/02 11:59:03;;;;;;;5.97;1.50;;;;;;;33.24;20.38;99141.22;6186106;23;20153;-91
2022/11/02 12:01:38;;;;;;;16.90;1.95;;;;;;;33.31;20.68;99132.97;6186354;23;20150;-92
2022/11/02 12:04:04;;;;;;;6.10;1.48;;;;;;;33.46;20.66;99129.91;6186268;23;20131;-92
2022/11/02 12:06:57;;;;;;;6.40;1.40;;;;;;;33.51;19.30;99135.47;6186542;23;20181;-92